createdAt,value
2022-10-17T00:01:26.605Z,11.80
2022-10-17T00:05:50.049Z,11.70
2022-10-17T00:10:12.371Z,11.70
2022-10-17T00:14:35.110Z,11.60
2022-10-17T00:18:58.171Z,11.60
2022-10-17T00:23:20.510Z,11.50
2022-10-17T00:27:43.170Z,11.50
2022-10-17T00:32:05.971Z,11.40
2022-10-17T00:36:29.930Z,11.50
2022-10-17T00:40:52.368Z,11.50
2022-10-17T00:45:29.652Z,11.50
2022-10-17T00:49:52.606Z,11.40
2022-10-17T00:54:17.769Z,11.40
2022-10-17T00:58:40.610Z,11.40
2022-10-17T01:03:02.951Z,11.40
2022-10-17T01:07:25.742Z,11.40
2022-10-17T01:12:17.042Z,11.40
2022-10-17T01:16:45.313Z,11.30
2022-10-17T01:21:57.910Z,11.30
2022-10-17T01:26:57.090Z,11.30
2022-10-17T01:31:26.191Z,11.30
2022-10-17T01:36:36.651Z,11.30
2022-10-17T01:41:27.170Z,11.30
2022-10-17T01:45:53.889Z,11.30
2022-10-17T01:50:24.323Z,11.30
2022-10-17T01:55:10.782Z,11.30
2022-10-17T01:59:44.730Z,11.10
2022-10-17T02:04:10.210Z,11.00
2022-10-17T02:08:46.350Z,11.00
2022-10-17T02:13:44.770Z,11.00
2022-10-17T02:18:25.430Z,10.90
2022-10-17T02:23:13.368Z,10.70
2022-10-17T02:28:17.410Z,10.90
2022-10-17T02:32:50.357Z,11.00
2022-10-17T02:37:21.692Z,11.00
2022-10-17T02:41:46.251Z,11.00
2022-10-17T02:46:09.350Z,10.90
2022-10-17T02:51:13.091Z,11.10
2022-10-17T02:55:42.990Z,11.30
2022-10-17T03:00:10.510Z,11.40
2022-10-17T03:04:34.731Z,11.10
2022-10-17T03:08:57.152Z,10.90
2022-10-17T03:13:20.070Z,10.70
2022-10-17T03:17:42.337Z,10.60
2022-10-17T03:22:05.131Z,10.50
2022-10-17T03:26:29.950Z,10.50
2022-10-17T03:30:53.671Z,10.50
2022-10-17T03:35:16.312Z,10.50
2022-10-17T03:39:42.763Z,10.50
2022-10-17T03:44:05.475Z,10.50
2022-10-17T03:48:29.931Z,10.40
2022-10-17T03:52:52.813Z,10.40
2022-10-17T03:57:15.322Z,10.30
2022-10-17T04:01:38.123Z,10.30
2022-10-17T04:06:02.413Z,10.30
2022-10-17T04:10:26.590Z,10.30
2022-10-17T04:14:49.113Z,10.20
2022-10-17T04:19:14.574Z,10.10
2022-10-17T04:23:40.951Z,10.10
2022-10-17T04:28:13.892Z,10.20
2022-10-17T04:32:39.750Z,10.10
2022-10-17T04:37:13.332Z,10.10
2022-10-17T04:41:35.951Z,10.00
2022-10-17T04:45:59.836Z,10.00
2022-10-17T04:50:22.472Z,10.00
2022-10-17T04:55:06.991Z,10.10
2022-10-17T04:59:30.191Z,10.10
2022-10-17T05:04:22.348Z,10.20
2022-10-17T05:08:48.851Z,10.20
2022-10-17T05:13:14.691Z,10.20
2022-10-17T05:17:36.912Z,10.20
2022-10-17T05:21:59.411Z,10.30
2022-10-17T05:26:22.672Z,10.40
2022-10-17T05:30:46.752Z,10.40
2022-10-17T05:35:09.463Z,10.40
2022-10-17T05:39:33.552Z,10.50
2022-10-17T05:43:56.262Z,10.60
2022-10-17T05:48:33.562Z,10.70
2022-10-17T05:52:57.491Z,10.70
2022-10-17T05:57:20.263Z,10.80
2022-10-17T06:01:43.754Z,10.90
2022-10-17T06:06:09.930Z,11.00
2022-10-17T06:10:35.286Z,11.90
2022-10-17T06:14:58.157Z,13.30
2022-10-17T06:19:22.411Z,14.70
2022-10-17T06:23:45.203Z,16.80
2022-10-17T06:28:13.067Z,19.10
2022-10-17T06:32:37.891Z,20.90
2022-10-17T06:37:01.159Z,22.90
2022-10-17T06:41:25.599Z,24.90
2022-10-17T06:45:51.683Z,26.60
2022-10-17T06:50:25.893Z,27.90
2022-10-17T06:55:05.612Z,29.30
2022-10-17T06:59:37.015Z,30.50
2022-10-17T07:04:11.383Z,31.80
2022-10-17T07:08:34.111Z,32.90
2022-10-17T07:12:58.495Z,34.00
2022-10-17T07:17:21.571Z,34.60
2022-10-17T07:21:43.771Z,34.50
2022-10-17T07:26:11.591Z,34.50
2022-10-17T07:30:35.310Z,35.50
2022-10-17T07:35:08.526Z,36.80
2022-10-17T07:39:31.451Z,37.70
2022-10-17T07:43:54.351Z,37.90
2022-10-17T07:48:59.692Z,37.60
2022-10-17T07:53:22.416Z,37.30
2022-10-17T07:57:44.635Z,36.50
2022-10-17T08:02:08.617Z,35.50
2022-10-17T08:06:31.031Z,34.60
2022-10-17T08:10:56.608Z,34.10
2022-10-17T08:15:19.175Z,33.90
2022-10-17T08:19:42.056Z,34.70
2022-10-17T08:24:05.655Z,36.10
2022-10-17T08:28:28.998Z,36.60
2022-10-17T08:32:51.436Z,36.70
2022-10-17T08:37:14.309Z,37.00
2022-10-17T08:42:18.197Z,37.40
2022-10-17T08:46:44.629Z,38.20
2022-10-17T08:51:27.195Z,39.30
2022-10-17T08:55:53.556Z,40.70
2022-10-17T09:00:19.821Z,40.60
2022-10-17T09:05:15.605Z,40.30
2022-10-17T09:09:51.597Z,41.00
2022-10-17T09:14:43.636Z,42.10
2022-10-17T09:19:26.067Z,40.70
2022-10-17T09:24:09.486Z,40.50
2022-10-17T09:28:33.420Z,40.30
2022-10-17T09:32:55.916Z,40.90
2022-10-17T09:37:19.477Z,39.60
2022-10-17T09:41:57.836Z,38.70
2022-10-17T09:46:35.676Z,38.40
2022-10-17T09:51:14.616Z,37.20
2022-10-17T09:56:02.448Z,38.30
2022-10-17T10:00:32.342Z,39.30
2022-10-17T10:05:20.797Z,39.70
2022-10-17T10:09:48.856Z,40.60
2022-10-17T10:14:35.496Z,41.50
2022-10-17T10:18:59.337Z,40.80
2022-10-17T10:23:22.996Z,41.30
2022-10-17T10:27:47.277Z,41.00
2022-10-17T10:32:31.976Z,41.00
2022-10-17T10:37:03.644Z,39.20
2022-10-17T10:41:28.136Z,38.60
2022-10-17T10:45:52.128Z,38.50
2022-10-17T10:50:29.380Z,39.00
2022-10-17T10:55:26.735Z,40.70
2022-10-17T11:00:17.118Z,40.20
2022-10-17T11:05:08.691Z,39.20
2022-10-17T11:10:21.822Z,39.50
2022-10-17T11:14:57.806Z,39.00
2022-10-17T11:19:52.143Z,40.30
2022-10-17T11:24:26.002Z,41.30
2022-10-17T11:28:49.452Z,40.30
2022-10-17T11:33:26.457Z,40.30
2022-10-17T11:38:17.063Z,39.90
2022-10-17T11:43:03.248Z,39.30
2022-10-17T11:48:02.224Z,38.50
2022-10-17T11:52:56.339Z,35.80
2022-10-17T11:58:17.186Z,33.40
2022-10-17T12:02:57.743Z,31.40
2022-10-17T12:07:50.374Z,30.50
2022-10-17T12:12:33.483Z,29.60
2022-10-17T12:16:56.344Z,28.90
2022-10-17T12:21:19.140Z,28.50
2022-10-17T12:25:52.962Z,28.20
2022-10-17T12:30:25.585Z,28.00
2022-10-17T12:34:56.287Z,28.00
2022-10-17T12:39:18.841Z,27.90
2022-10-17T12:43:55.098Z,27.70
2022-10-17T12:48:42.402Z,27.60
2022-10-17T12:53:08.124Z,27.50
2022-10-17T12:58:03.573Z,27.50
2022-10-17T13:02:29.364Z,27.30
2022-10-17T13:06:58.827Z,27.10
2022-10-17T13:11:28.122Z,27.00
2022-10-17T13:15:54.143Z,26.90
2022-10-17T13:20:30.411Z,26.80
2022-10-17T13:25:08.844Z,26.70
2022-10-17T13:29:33.147Z,26.60
2022-10-17T13:33:59.463Z,26.50
2022-10-17T13:38:28.724Z,26.30
2022-10-17T13:42:53.282Z,26.30
2022-10-17T13:47:37.062Z,26.10
2022-10-17T13:52:00.983Z,26.00
2022-10-17T13:56:29.200Z,25.90
2022-10-17T14:00:53.113Z,25.90
2022-10-17T14:05:23.546Z,25.90
2022-10-17T14:09:47.843Z,26.10
2022-10-17T14:14:26.427Z,26.20
2022-10-17T14:18:51.514Z,26.30
2022-10-17T14:23:41.093Z,26.30
2022-10-17T14:28:14.322Z,26.40
2022-10-17T14:32:37.987Z,26.40
2022-10-17T14:37:00.802Z,26.40
2022-10-17T14:41:47.854Z,26.30
2022-10-17T14:46:16.387Z,26.20
2022-10-17T14:50:39.371Z,26.10
2022-10-17T14:55:27.143Z,26.10
2022-10-17T14:59:54.569Z,25.80
2022-10-17T15:04:18.662Z,25.30
2022-10-17T15:08:41.202Z,24.90
2022-10-17T15:17:46.955Z,24.40
2022-10-17T15:22:09.522Z,24.00
2022-10-17T15:26:34.711Z,23.80
2022-10-17T15:30:57.283Z,23.50
2022-10-17T15:35:21.205Z,23.20
2022-10-17T15:39:43.677Z,22.90
2022-10-17T15:44:06.344Z,22.50
2022-10-17T15:48:32.092Z,22.20
2022-10-17T15:52:54.662Z,21.80
2022-10-17T15:57:30.373Z,21.50
2022-10-17T16:01:53.116Z,21.20
2022-10-17T16:06:15.918Z,20.90
2022-10-17T16:10:41.108Z,20.60
2022-10-17T16:15:04.383Z,20.30
2022-10-17T16:19:30.663Z,20.10
2022-10-17T16:23:53.363Z,19.80
2022-10-17T16:28:15.964Z,19.60
2022-10-17T16:32:38.769Z,19.40
2022-10-17T16:37:01.424Z,19.20
2022-10-17T16:41:32.005Z,19.00
2022-10-17T16:45:54.531Z,18.90
2022-10-17T16:50:17.556Z,18.70
2022-10-17T16:54:40.335Z,18.50
2022-10-17T16:59:02.843Z,18.40
2022-10-17T17:03:25.178Z,18.30
2022-10-17T17:07:48.363Z,18.20
2022-10-17T17:12:10.994Z,18.00
2022-10-17T17:16:35.448Z,17.80
2022-10-17T17:21:04.765Z,17.70
2022-10-17T17:25:27.284Z,17.60
2022-10-17T17:29:49.484Z,17.60
2022-10-17T17:34:15.617Z,17.40
2022-10-17T17:38:41.623Z,17.30
2022-10-17T17:43:04.384Z,17.20
2022-10-17T17:47:30.261Z,17.20
2022-10-17T17:51:52.954Z,17.00
2022-10-17T17:56:20.284Z,16.90
2022-10-17T18:00:42.942Z,16.80
2022-10-17T18:05:07.162Z,16.70
2022-10-17T18:09:29.885Z,16.60
2022-10-17T18:14:02.705Z,16.50
2022-10-17T18:19:31.928Z,16.30
2022-10-17T18:23:55.221Z,16.30
2022-10-17T18:28:17.541Z,16.20
2022-10-17T18:32:40.899Z,16.00
2022-10-17T18:37:03.242Z,15.90
2022-10-17T18:41:27.084Z,15.90
2022-10-17T18:45:49.621Z,15.80
2022-10-17T18:50:11.983Z,15.90
2022-10-17T18:54:35.061Z,15.90
2022-10-17T18:58:58.161Z,15.80
2022-10-17T19:03:21.240Z,15.90
2022-10-17T19:07:43.773Z,15.90
2022-10-17T19:12:06.482Z,15.90
2022-10-17T19:16:36.321Z,15.70
2022-10-17T19:21:07.720Z,15.70
2022-10-17T19:25:30.963Z,15.50
2022-10-17T19:29:53.620Z,15.40
2022-10-17T19:34:17.298Z,15.30
2022-10-17T19:38:40.280Z,15.30
2022-10-17T19:43:02.662Z,15.40
2022-10-17T19:47:25.645Z,15.30
2022-10-17T19:51:48.639Z,15.20
2022-10-17T19:56:12.462Z,15.10
2022-10-17T20:00:35.187Z,15.10
2022-10-17T20:05:13.846Z,15.00
2022-10-17T20:09:40.121Z,15.00
2022-10-17T20:14:06.222Z,15.00
2022-10-17T20:18:29.201Z,14.90
2022-10-17T20:22:51.403Z,14.90
2022-10-17T20:27:14.302Z,14.80
2022-10-17T20:31:37.487Z,14.70
2022-10-17T20:35:59.785Z,14.60
2022-10-17T20:40:37.389Z,14.40
2022-10-17T20:44:59.963Z,14.30
2022-10-17T20:49:22.673Z,14.20
2022-10-17T20:53:45.632Z,14.20
2022-10-17T20:58:10.161Z,14.20
2022-10-17T21:02:33.352Z,14.20
2022-10-17T21:06:55.818Z,14.20
2022-10-17T21:11:27.621Z,14.20
2022-10-17T21:16:05.783Z,14.20
2022-10-17T21:20:28.242Z,14.20
2022-10-17T21:24:50.790Z,14.20
2022-10-17T21:29:14.803Z,14.10
2022-10-17T21:33:37.943Z,14.10
2022-10-17T21:38:00.581Z,14.00
2022-10-17T21:42:23.081Z,14.00
2022-10-17T21:46:46.892Z,13.90
2022-10-17T21:51:12.881Z,13.80
2022-10-17T21:55:37.983Z,13.80
2022-10-17T22:00:00.204Z,13.70
2022-10-17T22:04:23.121Z,13.60
2022-10-17T22:08:45.901Z,13.60
2022-10-17T22:13:08.622Z,13.50
2022-10-17T22:17:31.252Z,13.40
2022-10-17T22:21:54.960Z,13.40
2022-10-17T22:26:17.569Z,13.20
2022-10-17T22:30:40.143Z,13.10
2022-10-17T22:35:02.762Z,13.20
2022-10-17T22:39:24.940Z,13.20
2022-10-17T22:43:47.413Z,13.20
2022-10-17T22:48:10.041Z,13.20
2022-10-17T22:52:32.566Z,13.10
2022-10-17T22:56:55.382Z,13.00
2022-10-17T23:01:24.815Z,12.80
2022-10-17T23:05:47.821Z,12.70
2022-10-17T23:10:10.781Z,12.70
2022-10-17T23:14:40.781Z,12.70
2022-10-17T23:19:03.442Z,12.80
2022-10-17T23:23:25.921Z,12.80
2022-10-17T23:27:48.420Z,12.80
2022-10-17T23:32:10.562Z,12.90
2022-10-17T23:40:55.513Z,13.10
2022-10-17T23:45:18.883Z,13.20
2022-10-17T23:49:41.500Z,13.10
2022-10-17T23:54:05.000Z,13.00
2022-10-17T23:58:27.660Z,12.90
